createdAt,value
2023-01-12T00:02:10.618Z,53.22
2023-01-12T00:04:40.889Z,52.45
2023-01-12T00:07:15.685Z,48.63
2023-01-12T00:09:45.848Z,48.20
2023-01-12T00:12:16.391Z,49.03
2023-01-12T00:14:46.926Z,49.70
2023-01-12T00:17:19.885Z,49.50
2023-01-12T00:19:50.002Z,43.53
2023-01-12T00:22:20.828Z,46.75
2023-01-12T00:24:51.610Z,47.70
2023-01-12T00:27:22.874Z,46.63
2023-01-12T00:29:53.585Z,46.28
2023-01-12T00:32:23.907Z,45.10
2023-01-12T00:34:54.423Z,51.47
2023-01-12T00:37:26.640Z,53.05
2023-01-12T00:40:02.631Z,48.05
2023-01-12T00:42:53.610Z,51.72
2023-01-12T00:45:24.298Z,53.25
2023-01-12T00:47:55.412Z,78.53
2023-01-12T00:50:25.599Z,96.50
2023-01-12T00:52:56.050Z,57.13
2023-01-12T00:55:26.123Z,45.97
2023-01-12T00:57:56.590Z,49.28
2023-01-12T01:00:27.133Z,46.60
2023-01-12T01:02:57.619Z,45.65
2023-01-12T01:05:27.660Z,46.63
2023-01-12T01:07:58.162Z,46.63
2023-01-12T01:10:28.267Z,45.75
2023-01-12T01:12:58.364Z,41.80
2023-01-12T01:15:28.729Z,40.30
2023-01-12T01:17:58.786Z,39.30
2023-01-12T01:20:28.767Z,59.47
2023-01-12T01:22:58.815Z,57.15
2023-01-12T01:25:28.878Z,43.60
2023-01-12T01:27:59.362Z,41.25
2023-01-12T01:30:30.067Z,43.22
2023-01-12T01:33:00.651Z,43.60
2023-01-12T01:35:31.112Z,46.08
2023-01-12T01:38:01.245Z,45.80
2023-01-12T01:40:32.105Z,44.08
2023-01-12T01:43:02.474Z,40.33
2023-01-12T01:45:33.291Z,38.15
2023-01-12T01:48:04.804Z,30.05
2023-01-12T01:50:37.853Z,26.08
2023-01-12T01:53:10.581Z,28.42
2023-01-12T01:56:00.890Z,27.42
2023-01-12T01:58:38.938Z,44.72
2023-01-12T02:01:09.798Z,34.58
2023-01-12T02:03:40.862Z,31.35
2023-01-12T02:06:11.617Z,25.70
2023-01-12T02:08:47.192Z,23.98
2023-01-12T02:11:37.684Z,25.50
2023-01-12T02:14:27.690Z,25.88
2023-01-12T02:17:03.140Z,27.45
2023-01-12T02:19:53.096Z,23.33
2023-01-12T02:22:43.103Z,22.02
2023-01-12T02:25:32.989Z,22.70
2023-01-12T02:28:22.758Z,24.77
2023-01-12T02:31:13.066Z,27.65
2023-01-12T02:33:49.970Z,37.30
2023-01-12T02:36:40.065Z,24.67
2023-01-12T02:39:29.703Z,24.13
2023-01-12T02:42:25.523Z,25.92
2023-01-12T02:45:04.502Z,23.15
2023-01-12T02:47:40.483Z,21.70
2023-01-12T02:50:12.654Z,22.83
2023-01-12T02:52:44.734Z,20.13
2023-01-12T02:55:17.005Z,20.73
2023-01-12T02:57:48.225Z,14.77
2023-01-12T03:00:20.813Z,14.88
2023-01-12T03:02:52.214Z,22.15
2023-01-12T03:05:29.186Z,15.85
2023-01-12T03:08:03.311Z,15.90
2023-01-12T03:10:38.594Z,19.30
2023-01-12T03:13:11.572Z,17.27
2023-01-12T03:15:44.475Z,18.05
2023-01-12T03:18:34.260Z,26.85
2023-01-12T03:21:09.479Z,29.75
2023-01-12T03:23:55.610Z,16.38
2023-01-12T03:26:29.277Z,21.40
2023-01-12T03:29:12.478Z,18.73
2023-01-12T03:31:43.289Z,17.30
2023-01-12T03:34:13.453Z,27.95
2023-01-12T03:36:51.278Z,17.02
2023-01-12T03:39:28.588Z,17.50
2023-01-12T03:42:18.285Z,17.73
2023-01-12T03:45:08.185Z,16.85
2023-01-12T03:47:39.538Z,19.92
2023-01-12T03:50:16.587Z,26.23
2023-01-12T03:52:48.669Z,25.88
2023-01-12T03:55:20.418Z,26.58
2023-01-12T03:57:51.487Z,17.00
2023-01-12T04:00:23.432Z,17.88
2023-01-12T04:03:04.657Z,17.02
2023-01-12T04:05:35.168Z,18.25
2023-01-12T04:08:05.695Z,16.42
2023-01-12T04:10:35.827Z,16.27
2023-01-12T04:13:06.329Z,18.25
2023-01-12T04:15:43.900Z,15.75
2023-01-12T04:18:14.767Z,21.70
2023-01-12T04:20:44.939Z,18.75
2023-01-12T04:23:15.452Z,17.88
2023-01-12T04:25:45.523Z,18.05
2023-01-12T04:28:18.531Z,17.65
2023-01-12T04:30:49.055Z,14.98
2023-01-12T04:33:19.507Z,21.92
2023-01-12T04:35:50.321Z,15.77
2023-01-12T04:38:21.123Z,18.80
2023-01-12T04:40:56.261Z,25.90
2023-01-12T04:43:26.286Z,26.77
2023-01-12T04:45:56.196Z,25.92
2023-01-12T04:48:27.026Z,14.25
2023-01-12T04:50:57.191Z,17.55
2023-01-12T04:53:28.319Z,18.90
2023-01-12T04:55:59.255Z,15.27
2023-01-12T04:58:30.295Z,15.15
2023-01-12T05:01:00.954Z,19.42
2023-01-12T05:03:31.687Z,36.15
2023-01-12T05:06:02.096Z,12.60
2023-01-12T05:08:51.956Z,16.15
2023-01-12T05:11:23.011Z,11.77
2023-01-12T05:13:53.510Z,13.25
2023-01-12T05:16:24.438Z,15.60
2023-01-12T05:18:55.898Z,20.25
2023-01-12T05:21:26.855Z,20.55
2023-01-12T05:23:57.659Z,13.65
2023-01-12T05:26:27.925Z,17.42
2023-01-12T05:28:58.436Z,13.95
2023-01-12T05:31:28.596Z,16.13
2023-01-12T05:33:59.391Z,18.17
2023-01-12T05:36:29.758Z,16.98
2023-01-12T05:39:01.225Z,16.75
2023-01-12T05:41:31.427Z,17.52
2023-01-12T05:44:01.831Z,15.95
2023-01-12T05:46:35.716Z,17.60
2023-01-12T05:49:05.763Z,17.10
2023-01-12T05:51:36.187Z,17.42
2023-01-12T05:54:07.420Z,17.67
2023-01-12T05:56:38.690Z,17.88
2023-01-12T05:59:08.850Z,17.00
2023-01-12T06:01:40.236Z,19.23
2023-01-12T06:04:10.811Z,18.70
2023-01-12T06:06:41.293Z,16.85
2023-01-12T06:09:11.749Z,17.08
2023-01-12T06:12:01.555Z,17.27
2023-01-12T06:14:31.701Z,16.48
2023-01-12T06:17:02.516Z,15.43
2023-01-12T06:19:33.539Z,14.57
2023-01-12T06:22:04.378Z,15.80
2023-01-12T06:24:34.538Z,14.70
2023-01-12T06:27:04.734Z,13.57
2023-01-12T06:29:35.279Z,15.80
2023-01-12T06:32:05.746Z,14.68
2023-01-12T06:34:37.109Z,16.13
2023-01-12T06:37:09.873Z,26.30
2023-01-12T06:39:39.996Z,22.40
2023-01-12T06:42:29.939Z,18.25
2023-01-12T06:45:01.564Z,16.27
2023-01-12T06:47:33.085Z,17.98
2023-01-12T06:50:03.432Z,19.88
2023-01-12T06:52:33.537Z,20.70
2023-01-12T06:55:03.592Z,19.40
2023-01-12T06:57:34.006Z,20.00
2023-01-12T07:00:04.648Z,20.02
2023-01-12T07:02:34.757Z,23.20
2023-01-12T07:05:05.118Z,24.27
2023-01-12T07:07:35.428Z,23.45
2023-01-12T07:10:06.309Z,23.55
2023-01-12T07:12:36.714Z,25.58
2023-01-12T07:15:06.963Z,27.58
2023-01-12T07:17:37.689Z,26.60
2023-01-12T07:20:08.133Z,23.63
2023-01-12T07:22:38.485Z,27.00
2023-01-12T07:25:08.814Z,21.92
2023-01-12T07:27:38.883Z,22.10
2023-01-12T07:30:09.666Z,20.83
2023-01-12T07:32:40.027Z,23.42
2023-01-12T07:35:10.302Z,19.27
2023-01-12T07:37:40.675Z,21.90
2023-01-12T07:40:11.584Z,16.02
2023-01-12T07:42:41.987Z,14.68
2023-01-12T07:45:12.728Z,16.20
2023-01-12T07:47:42.789Z,28.05
2023-01-12T07:50:13.256Z,17.27
2023-01-12T07:52:43.683Z,18.98
2023-01-12T07:55:13.784Z,15.88
2023-01-12T07:57:44.185Z,15.43
2023-01-12T08:00:14.882Z,14.52
2023-01-12T08:02:55.241Z,13.75
2023-01-12T08:05:25.428Z,13.27
2023-01-12T08:07:55.829Z,14.80
2023-01-12T08:10:26.171Z,17.65
2023-01-12T08:12:56.239Z,14.07
2023-01-12T08:15:28.032Z,12.80
2023-01-12T08:18:03.342Z,13.55
2023-01-12T08:20:36.283Z,12.70
2023-01-12T08:23:11.588Z,16.05
2023-01-12T08:25:46.092Z,18.38
2023-01-12T08:28:20.292Z,13.65
2023-01-12T08:30:51.777Z,16.25
2023-01-12T08:33:22.830Z,15.68
2023-01-12T08:35:53.750Z,13.77
2023-01-12T08:38:24.676Z,14.93
2023-01-12T08:41:14.659Z,18.95
2023-01-12T08:44:04.332Z,14.75
2023-01-12T08:46:37.605Z,16.02
2023-01-12T08:49:11.267Z,15.73
2023-01-12T08:51:41.434Z,18.60
2023-01-12T08:54:12.981Z,16.67
2023-01-12T08:56:43.196Z,15.70
2023-01-12T08:59:14.433Z,16.98
2023-01-12T09:01:45.460Z,16.10
2023-01-12T09:04:15.950Z,16.77
2023-01-12T09:06:47.131Z,18.77
2023-01-12T09:09:21.813Z,24.02
2023-01-12T09:11:52.977Z,23.58
2023-01-12T09:14:23.337Z,21.38
2023-01-12T09:16:54.721Z,20.67
2023-01-12T09:19:25.112Z,21.95
2023-01-12T09:21:55.086Z,21.38
2023-01-12T09:24:25.381Z,20.90
2023-01-12T09:26:55.807Z,19.08
2023-01-12T09:29:26.628Z,22.73
2023-01-12T09:31:57.218Z,24.77
2023-01-12T09:34:28.103Z,23.48
2023-01-12T09:36:58.966Z,21.73
2023-01-12T09:39:30.076Z,21.15
2023-01-12T09:42:21.064Z,20.55
2023-01-12T09:45:12.141Z,22.58
2023-01-12T09:47:46.207Z,23.48
2023-01-12T09:50:18.720Z,18.10
2023-01-12T09:52:57.223Z,20.52
2023-01-12T09:55:28.654Z,21.40
2023-01-12T09:58:18.238Z,20.33
2023-01-12T10:00:58.377Z,21.65
2023-01-12T10:03:33.192Z,20.00
2023-01-12T10:06:03.666Z,18.08
2023-01-12T10:08:53.585Z,19.05
2023-01-12T10:11:43.507Z,17.05
2023-01-12T10:14:27.199Z,19.35
2023-01-12T10:17:17.729Z,19.77
2023-01-12T10:20:08.682Z,20.13
2023-01-12T10:22:58.645Z,18.88
2023-01-12T10:25:33.687Z,18.98
2023-01-12T10:28:09.027Z,18.85
2023-01-12T10:30:40.770Z,20.23
2023-01-12T10:33:15.365Z,21.42
2023-01-12T10:36:05.322Z,21.05
2023-01-12T10:38:37.714Z,22.30
2023-01-12T10:41:21.180Z,22.95
2023-01-12T10:44:10.877Z,24.15
2023-01-12T10:46:41.141Z,23.35
2023-01-12T10:49:31.061Z,25.25
2023-01-12T10:52:02.864Z,28.60
2023-01-12T10:54:36.954Z,41.10
2023-01-12T10:57:26.362Z,100.68
2023-01-12T11:00:00.128Z,100.97
2023-01-12T11:02:30.885Z,71.00
2023-01-12T11:05:01.039Z,44.63
2023-01-12T11:07:31.844Z,52.00
2023-01-12T11:10:22.167Z,68.60
2023-01-12T11:13:02.705Z,57.17
2023-01-12T11:15:37.183Z,47.92
2023-01-12T11:18:27.181Z,56.97
2023-01-12T11:21:02.686Z,50.00
2023-01-12T11:23:40.276Z,33.67
2023-01-12T11:26:21.415Z,35.67
2023-01-12T11:28:55.247Z,31.30
2023-01-12T11:31:28.518Z,29.10
2023-01-12T11:34:01.556Z,26.95
2023-01-12T11:36:41.229Z,22.33
2023-01-12T11:39:16.034Z,22.08
2023-01-12T11:42:07.455Z,25.23
2023-01-12T11:44:57.461Z,27.10
2023-01-12T11:47:29.661Z,30.15
2023-01-12T11:50:10.265Z,31.65
2023-01-12T11:52:40.458Z,42.95
2023-01-12T11:55:18.210Z,43.15
2023-01-12T11:57:55.833Z,36.05
2023-01-12T12:00:33.895Z,32.88
2023-01-12T12:03:20.731Z,33.00
2023-01-12T12:06:04.222Z,28.88
2023-01-12T12:08:53.863Z,32.80
2023-01-12T12:11:37.362Z,33.63
2023-01-12T12:14:30.456Z,29.63
2023-01-12T12:17:20.733Z,31.75
2023-01-12T12:20:10.534Z,29.27
2023-01-12T12:22:49.752Z,32.67
2023-01-12T12:25:28.687Z,34.10
2023-01-12T12:28:05.847Z,39.28
2023-01-12T12:30:50.696Z,35.58
2023-01-12T12:33:39.172Z,34.65
2023-01-12T12:36:28.886Z,39.05
2023-01-12T12:39:18.531Z,45.60
2023-01-12T12:42:28.083Z,51.75
2023-01-12T12:45:17.922Z,57.95
2023-01-12T12:48:06.290Z,40.38
2023-01-12T12:50:45.600Z,40.83
2023-01-12T12:53:37.037Z,46.22
2023-01-12T12:56:11.701Z,52.35
2023-01-12T12:58:43.592Z,675.42
2023-01-12T13:01:33.669Z,116.00
2023-01-12T13:04:09.771Z,66.80
2023-01-12T13:06:41.336Z,54.20
2023-01-12T13:09:31.643Z,56.65
2023-01-12T13:12:21.339Z,50.83
2023-01-12T13:15:10.940Z,44.85
2023-01-12T13:17:45.530Z,50.28
2023-01-12T13:20:35.552Z,53.33
2023-01-12T13:23:07.483Z,54.40
2023-01-12T13:25:55.105Z,53.42
2023-01-12T13:28:25.621Z,50.83
2023-01-12T13:30:57.418Z,51.80
2023-01-12T13:33:31.382Z,123.32
2023-01-12T13:36:03.094Z,69.75
2023-01-12T13:38:53.094Z,65.13
2023-01-12T13:41:47.979Z,65.78
2023-01-12T13:44:23.549Z,68.18
2023-01-12T13:46:55.821Z,65.30
2023-01-12T13:49:31.291Z,57.92
2023-01-12T13:52:06.623Z,57.47
2023-01-12T13:54:37.596Z,56.03
2023-01-12T13:57:17.719Z,54.90
2023-01-12T14:00:10.752Z,53.60
2023-01-12T14:02:44.175Z,50.10
2023-01-12T14:05:24.731Z,51.63
2023-01-12T14:08:14.206Z,50.00
2023-01-12T14:10:58.930Z,50.22
2023-01-12T14:13:38.840Z,48.35
2023-01-12T14:16:33.591Z,45.95
2023-01-12T14:19:04.451Z,47.22
2023-01-12T14:21:36.447Z,43.53
2023-01-12T14:24:27.131Z,44.95
2023-01-12T14:26:57.581Z,46.53
2023-01-12T14:29:27.969Z,42.78
2023-01-12T14:31:58.488Z,94.07
2023-01-12T14:34:37.184Z,45.35
2023-01-12T14:37:12.362Z,45.75
2023-01-12T14:39:43.408Z,61.58
2023-01-12T14:42:40.158Z,45.40
2023-01-12T14:45:43.040Z,45.20
2023-01-12T14:48:33.647Z,41.72
2023-01-12T14:51:23.633Z,65.18
2023-01-12T14:54:01.772Z,48.50
2023-01-12T14:56:36.393Z,47.45
2023-01-12T14:59:11.994Z,43.15
2023-01-12T15:01:42.497Z,63.45
2023-01-12T15:04:23.758Z,47.40
2023-01-12T15:07:06.177Z,45.25
2023-01-12T15:09:38.929Z,47.83
2023-01-12T15:12:29.018Z,48.22
2023-01-12T15:15:19.019Z,44.78
2023-01-12T15:18:09.415Z,48.85
2023-01-12T15:21:01.137Z,44.65
2023-01-12T15:23:55.244Z,44.15
2023-01-12T15:26:25.703Z,44.55
2023-01-12T15:28:56.197Z,44.28
2023-01-12T15:31:35.372Z,44.67
2023-01-12T15:34:06.539Z,46.42
2023-01-12T15:36:36.976Z,51.35
2023-01-12T15:39:07.850Z,48.58
2023-01-12T15:41:58.245Z,50.30
2023-01-12T15:44:28.278Z,49.05
2023-01-12T15:46:58.703Z,46.28
2023-01-12T15:49:28.990Z,42.22
2023-01-12T15:51:59.560Z,43.72
2023-01-12T15:54:30.139Z,41.85
2023-01-12T15:57:01.397Z,45.75
2023-01-12T15:59:31.515Z,48.15
2023-01-12T16:02:01.938Z,48.42
2023-01-12T16:04:47.553Z,46.72
2023-01-12T16:07:17.423Z,47.00
2023-01-12T16:09:49.236Z,46.53
2023-01-12T16:12:20.103Z,52.97
2023-01-12T16:14:51.540Z,447.17
2023-01-12T16:17:21.941Z,201.13
2023-01-12T16:19:52.427Z,66.00
2023-01-12T16:22:26.766Z,48.20
2023-01-12T16:24:58.264Z,50.38
2023-01-12T16:27:29.658Z,53.00
2023-01-12T16:30:00.090Z,60.92
2023-01-12T16:32:30.263Z,58.13
2023-01-12T16:35:00.367Z,58.17
2023-01-12T16:37:34.584Z,54.88
2023-01-12T16:40:04.875Z,49.95
2023-01-12T16:42:35.302Z,52.50
2023-01-12T16:45:05.425Z,51.67
2023-01-12T16:47:35.925Z,79.75
2023-01-12T16:50:06.689Z,56.88
2023-01-12T16:52:36.798Z,74.88
2023-01-12T16:55:07.011Z,67.38
2023-01-12T16:57:37.571Z,70.18
2023-01-12T17:00:07.971Z,72.25
2023-01-12T17:02:38.670Z,70.53
2023-01-12T17:05:10.034Z,63.22
2023-01-12T17:07:40.561Z,62.90
2023-01-12T17:10:11.433Z,63.95
2023-01-12T17:12:50.671Z,64.50
2023-01-12T17:15:26.075Z,65.53
2023-01-12T17:17:57.078Z,64.18
2023-01-12T17:20:27.857Z,61.65
2023-01-12T17:22:59.267Z,61.08
2023-01-12T17:25:30.012Z,68.38
2023-01-12T17:28:00.592Z,68.35
2023-01-12T17:30:31.209Z,73.28
2023-01-12T17:33:04.564Z,80.20
2023-01-12T17:35:37.336Z,93.72
2023-01-12T17:38:07.899Z,85.65
2023-01-12T17:40:39.152Z,73.85
2023-01-12T17:43:14.618Z,70.60
2023-01-12T17:45:45.566Z,65.25
2023-01-12T17:48:15.745Z,61.88
2023-01-12T17:50:46.424Z,59.78
2023-01-12T17:53:18.856Z,76.57
2023-01-12T17:55:50.410Z,275.42
2023-01-12T17:58:21.571Z,91.97
2023-01-12T18:00:51.715Z,71.45
2023-01-12T18:03:21.830Z,64.78
2023-01-12T18:06:02.923Z,69.38
2023-01-12T18:08:36.323Z,60.25
2023-01-12T18:11:07.779Z,70.30
2023-01-12T18:13:39.465Z,69.20
2023-01-12T18:16:12.183Z,64.95
2023-01-12T18:18:43.699Z,65.85
2023-01-12T18:21:15.623Z,71.82
2023-01-12T18:23:45.791Z,60.30
2023-01-12T18:26:25.285Z,67.97
2023-01-12T18:28:56.702Z,63.72
2023-01-12T18:31:28.065Z,67.10
2023-01-12T18:34:05.879Z,63.08
2023-01-12T18:36:40.419Z,59.78
2023-01-12T18:39:11.308Z,64.82
2023-01-12T18:42:01.107Z,65.50
2023-01-12T18:44:32.833Z,61.33
2023-01-12T18:47:22.975Z,63.17
2023-01-12T18:49:58.926Z,66.20
2023-01-12T18:52:48.860Z,63.80
2023-01-12T18:55:19.980Z,66.25
2023-01-12T18:57:50.059Z,69.30
2023-01-12T19:00:20.354Z,66.47
2023-01-12T19:02:50.673Z,70.78
2023-01-12T19:05:24.720Z,72.60
2023-01-12T19:08:14.505Z,65.63
2023-01-12T19:10:44.930Z,76.43
2023-01-12T19:13:34.579Z,63.90
2023-01-12T19:16:24.660Z,66.57
2023-01-12T19:18:54.770Z,72.63
2023-01-12T19:21:44.457Z,74.10
2023-01-12T19:24:34.399Z,105.75
2023-01-12T19:27:24.511Z,90.32
2023-01-12T19:29:54.869Z,88.47
2023-01-12T19:32:25.120Z,111.93
2023-01-12T19:35:02.287Z,168.63
2023-01-12T19:37:36.757Z,99.50
2023-01-12T19:40:20.433Z,104.22
2023-01-12T19:43:10.483Z,123.68
2023-01-12T19:45:42.883Z,93.18
2023-01-12T19:48:14.660Z,98.47
2023-01-12T19:50:46.365Z,175.57
2023-01-12T19:53:19.996Z,98.07
2023-01-12T19:55:54.513Z,111.57
2023-01-12T19:58:25.056Z,135.05
2023-01-12T20:00:57.198Z,105.68
2023-01-12T20:03:27.743Z,136.48
2023-01-12T20:05:57.820Z,178.98
2023-01-12T20:08:28.833Z,114.53
2023-01-12T20:10:59.953Z,115.63
2023-01-12T20:13:30.315Z,107.07
2023-01-12T20:16:00.411Z,142.30
2023-01-12T20:18:30.924Z,142.38
2023-01-12T20:21:02.485Z,142.68
2023-01-12T20:23:33.337Z,210.38
2023-01-12T20:26:03.615Z,134.65
2023-01-12T20:28:34.432Z,647.45
2023-01-12T20:31:04.564Z,332.83
2023-01-12T20:33:34.639Z,209.80
2023-01-12T20:36:05.777Z,276.08
2023-01-12T20:38:36.140Z,491.33
2023-01-12T20:41:09.784Z,191.38
2023-01-12T20:43:40.049Z,265.50
2023-01-12T20:46:10.921Z,295.25
2023-01-12T20:48:42.946Z,508.42
2023-01-12T20:51:14.199Z,584.55
2023-01-12T20:53:44.990Z,382.17
2023-01-12T20:56:15.574Z,139.95
2023-01-12T20:58:45.671Z,475.23
2023-01-12T21:01:17.267Z,371.73
2023-01-12T21:03:48.088Z,221.05
2023-01-12T21:06:19.710Z,152.65
2023-01-12T21:08:50.033Z,204.73
2023-01-12T21:11:21.802Z,304.58
2023-01-12T21:13:52.301Z,268.25
2023-01-12T21:16:22.688Z,456.23
2023-01-12T21:18:54.737Z,342.98
2023-01-12T21:21:25.272Z,321.23
2023-01-12T21:23:55.681Z,153.98
2023-01-12T21:26:25.769Z,135.13
2023-01-12T21:28:55.632Z,122.53
2023-01-12T21:31:25.753Z,164.32
2023-01-12T21:33:56.123Z,113.90
2023-01-12T21:36:26.476Z,135.20
2023-01-12T21:38:56.896Z,100.97
2023-01-12T21:41:28.012Z,113.05
2023-01-12T21:43:58.009Z,106.18
2023-01-12T21:46:29.811Z,93.13
2023-01-12T21:49:00.174Z,88.35
2023-01-12T21:51:37.383Z,114.55
2023-01-12T21:54:07.793Z,122.13
2023-01-12T21:56:37.892Z,114.18
2023-01-12T21:59:08.313Z,106.05
2023-01-12T22:01:38.714Z,100.43
2023-01-12T22:04:08.901Z,106.13
2023-01-12T22:06:39.752Z,121.28
2023-01-12T22:09:10.065Z,93.15
2023-01-12T22:11:40.206Z,102.72
2023-01-12T22:14:10.752Z,95.65
2023-01-12T22:16:41.220Z,98.45
2023-01-12T22:19:11.732Z,113.13
2023-01-12T22:21:42.577Z,88.35
2023-01-12T22:24:13.343Z,101.07
2023-01-12T22:26:43.675Z,95.30
2023-01-12T22:29:14.533Z,96.47
2023-01-12T22:31:44.633Z,92.93
2023-01-12T22:34:15.561Z,128.63
2023-01-12T22:36:45.577Z,88.78
2023-01-12T22:39:15.635Z,116.13
2023-01-12T22:41:45.719Z,80.28
2023-01-12T22:44:16.110Z,86.18
2023-01-12T22:46:46.238Z,100.10
2023-01-12T22:49:16.184Z,110.22
2023-01-12T22:51:47.133Z,82.13
2023-01-12T22:54:17.284Z,89.93
2023-01-12T22:56:47.620Z,83.55
2023-01-12T22:59:18.106Z,98.75
2023-01-12T23:01:48.217Z,82.20
2023-01-12T23:04:18.176Z,85.65
2023-01-12T23:06:47.952Z,95.07
2023-01-12T23:09:18.006Z,74.35
2023-01-12T23:11:48.173Z,76.38
2023-01-12T23:14:18.525Z,91.97
2023-01-12T23:16:48.929Z,97.00
2023-01-12T23:19:19.275Z,85.72
2023-01-12T23:21:50.281Z,109.72
2023-01-12T23:24:20.551Z,83.82
2023-01-12T23:26:50.901Z,81.75
2023-01-12T23:29:20.993Z,76.50
2023-01-12T23:31:51.452Z,75.05
2023-01-12T23:34:21.563Z,102.03
2023-01-12T23:36:52.323Z,88.53
2023-01-12T23:39:22.738Z,76.35
2023-01-12T23:41:53.103Z,108.32
2023-01-12T23:44:23.125Z,77.65
2023-01-12T23:46:52.868Z,86.35
2023-01-12T23:49:22.885Z,118.10
2023-01-12T23:51:53.447Z,100.60
2023-01-12T23:54:23.821Z,93.30
2023-01-12T23:56:55.046Z,109.32
2023-01-12T23:59:25.145Z,126.93
